createdAt,value
2019-06-26T00:02:03.447Z,49.01
2019-06-26T00:04:32.847Z,48.39
2019-06-26T00:07:02.287Z,48.57
2019-06-26T00:09:31.737Z,49.61
2019-06-26T00:12:01.082Z,48.06
2019-06-26T00:14:30.472Z,48.15
2019-06-26T00:16:59.823Z,47.79
2019-06-26T00:19:29.278Z,48.65
2019-06-26T00:21:58.635Z,46.66
2019-06-26T00:24:28.011Z,46.99
2019-06-26T00:26:57.469Z,45.40
2019-06-26T00:29:26.836Z,47.37
2019-06-26T00:31:56.192Z,45.70
2019-06-26T00:34:25.577Z,45.44
2019-06-26T00:36:55.019Z,48.19
2019-06-26T00:39:24.405Z,47.79
2019-06-26T00:41:53.778Z,47.62
2019-06-26T00:44:23.210Z,46.97
2019-06-26T00:46:52.629Z,45.68
2019-06-26T00:49:21.990Z,46.75
2019-06-26T00:51:51.372Z,47.35
2019-06-26T00:54:20.852Z,48.22
2019-06-26T00:56:50.296Z,47.69
2019-06-26T00:59:19.673Z,44.76
2019-06-26T01:01:49.061Z,44.76
2019-06-26T01:04:22.999Z,45.74
2019-06-26T01:06:52.427Z,46.05
2019-06-26T01:09:21.927Z,45.72
2019-06-26T01:11:51.289Z,45.10
2019-06-26T01:14:20.683Z,47.37
2019-06-26T01:16:50.055Z,47.37
2019-06-26T01:19:19.484Z,46.66
2019-06-26T01:21:48.815Z,47.09
2019-06-26T01:24:18.174Z,48.31
2019-06-26T01:26:47.659Z,48.31
2019-06-26T01:29:17.036Z,45.72
2019-06-26T01:31:46.365Z,47.26
2019-06-26T01:34:15.750Z,47.26
2019-06-26T01:36:45.134Z,47.22
2019-06-26T01:39:14.502Z,47.81
2019-06-26T01:41:43.857Z,48.20
2019-06-26T01:44:15.206Z,48.11
2019-06-26T01:46:44.405Z,48.44
2019-06-26T01:49:13.780Z,49.74
2019-06-26T01:51:43.157Z,49.74
2019-06-26T01:54:12.527Z,49.66
2019-06-26T01:56:41.935Z,46.55
2019-06-26T01:59:11.408Z,46.83
2019-06-26T02:01:40.940Z,49.62
2019-06-26T02:04:15.509Z,49.24
2019-06-26T02:06:43.701Z,46.54
2019-06-26T02:09:13.285Z,46.95
2019-06-26T02:11:42.907Z,46.70
2019-06-26T02:14:12.526Z,45.31
2019-06-26T02:16:42.039Z,46.04
2019-06-26T02:19:12.896Z,49.73
2019-06-26T02:21:42.558Z,50.47
2019-06-26T02:24:12.179Z,51.08
2019-06-26T02:26:41.773Z,51.94
2019-06-26T02:29:11.337Z,51.94
2019-06-26T02:31:40.874Z,51.94
2019-06-26T02:34:10.430Z,50.77
2019-06-26T02:36:40.074Z,50.77
2019-06-26T02:39:09.653Z,51.55
2019-06-26T02:41:39.264Z,49.95
2019-06-26T02:44:08.768Z,51.34
2019-06-26T02:46:38.359Z,51.34
2019-06-26T02:49:08.011Z,52.99
2019-06-26T02:51:37.609Z,52.99
2019-06-26T02:54:07.181Z,53.10
2019-06-26T02:56:36.714Z,52.65
2019-06-26T02:59:06.326Z,52.65
2019-06-26T03:01:35.864Z,51.97
2019-06-26T03:04:05.433Z,51.44
2019-06-26T03:06:34.964Z,49.35
2019-06-26T03:09:06.164Z,48.96
2019-06-26T03:11:35.715Z,48.60
2019-06-26T03:14:05.355Z,50.26
2019-06-26T03:16:35.238Z,49.16
2019-06-26T03:19:04.821Z,49.25
2019-06-26T03:21:34.473Z,51.97
2019-06-26T03:24:04.093Z,52.15
2019-06-26T03:26:33.581Z,51.37
2019-06-26T03:29:03.158Z,51.37
2019-06-26T03:31:32.661Z,52.14
2019-06-26T03:34:02.244Z,51.63
2019-06-26T03:36:31.718Z,51.65
2019-06-26T03:39:01.272Z,50.71
2019-06-26T03:41:30.765Z,49.46
2019-06-26T03:44:00.252Z,48.01
2019-06-26T03:46:29.752Z,49.15
2019-06-26T03:48:59.211Z,48.89
2019-06-26T03:51:28.708Z,48.45
2019-06-26T03:53:58.175Z,49.86
2019-06-26T03:56:27.753Z,49.88
2019-06-26T03:58:57.279Z,51.87
2019-06-26T04:01:26.779Z,51.87
2019-06-26T04:03:57.499Z,52.46
2019-06-26T04:06:27.271Z,52.37
2019-06-26T04:08:56.834Z,53.62
2019-06-26T04:11:26.452Z,51.45
2019-06-26T04:13:56.019Z,52.19
2019-06-26T04:16:25.520Z,52.29
2019-06-26T04:18:55.116Z,53.28
2019-06-26T04:21:24.672Z,53.86
2019-06-26T04:23:54.187Z,53.66
2019-06-26T04:26:23.722Z,53.09
2019-06-26T04:28:53.205Z,54.15
2019-06-26T04:31:22.881Z,53.76
2019-06-26T04:33:52.418Z,53.86
2019-06-26T04:36:21.974Z,54.22
2019-06-26T04:38:51.565Z,54.23
2019-06-26T04:41:21.122Z,53.91
2019-06-26T04:43:50.647Z,53.99
2019-06-26T04:46:20.307Z,53.54
2019-06-26T04:48:49.807Z,52.73
2019-06-26T04:51:19.413Z,54.06
2019-06-26T04:53:48.977Z,54.31
2019-06-26T04:56:18.423Z,54.04
2019-06-26T04:58:47.950Z,53.85
2019-06-26T05:01:17.551Z,54.17
2019-06-26T05:03:47.087Z,54.60
2019-06-26T05:06:16.597Z,54.00
2019-06-26T05:08:46.152Z,54.60
2019-06-26T05:11:16.013Z,54.53
2019-06-26T05:13:45.563Z,54.40
2019-06-26T05:16:19.269Z,54.62
2019-06-26T05:18:46.399Z,54.31
2019-06-26T05:21:15.855Z,54.59
2019-06-26T05:23:45.311Z,54.15
2019-06-26T05:26:15.055Z,54.20
2019-06-26T05:28:44.675Z,54.31
2019-06-26T05:31:14.210Z,54.12
2019-06-26T05:33:43.748Z,53.97
2019-06-26T05:36:13.254Z,54.04
2019-06-26T05:38:42.878Z,54.04
2019-06-26T05:41:12.343Z,54.57
2019-06-26T05:43:42.092Z,55.11
2019-06-26T05:46:11.594Z,55.29
2019-06-26T05:48:41.064Z,55.04
2019-06-26T05:51:10.600Z,54.83
2019-06-26T05:53:40.153Z,55.24
2019-06-26T05:56:09.687Z,55.18
2019-06-26T05:58:39.172Z,55.33
2019-06-26T06:01:08.702Z,55.24
2019-06-26T06:03:38.188Z,55.00
2019-06-26T06:06:07.803Z,55.16
2019-06-26T06:08:37.273Z,55.20
2019-06-26T06:11:06.749Z,55.11
2019-06-26T06:13:36.317Z,55.15
2019-06-26T06:16:06.588Z,55.07
2019-06-26T06:18:36.396Z,54.94
2019-06-26T06:21:05.883Z,55.15
2019-06-26T06:23:35.571Z,55.09
2019-06-26T06:26:05.138Z,55.11
2019-06-26T06:28:34.725Z,54.97
2019-06-26T06:31:04.279Z,55.14
2019-06-26T06:33:33.827Z,55.04
2019-06-26T06:36:03.409Z,55.07
2019-06-26T06:38:32.876Z,54.58
2019-06-26T06:41:02.466Z,55.27
2019-06-26T06:43:31.999Z,55.32
2019-06-26T06:46:01.513Z,55.17
2019-06-26T06:48:31.026Z,55.02
2019-06-26T06:51:00.629Z,55.36
2019-06-26T06:53:30.322Z,54.08
2019-06-26T06:55:59.855Z,54.08
2019-06-26T06:58:30.389Z,54.82
2019-06-26T07:01:00.031Z,54.65
2019-06-26T07:03:29.549Z,54.84
2019-06-26T07:05:59.128Z,54.79
2019-06-26T07:08:28.709Z,55.19
2019-06-26T07:10:58.243Z,54.39
2019-06-26T07:13:28.037Z,54.91
2019-06-26T07:16:04.898Z,54.77
2019-06-26T07:18:34.333Z,54.80
2019-06-26T07:21:03.871Z,55.39
2019-06-26T07:23:33.417Z,54.77
2019-06-26T07:26:03.038Z,54.73
2019-06-26T07:28:32.507Z,54.71
2019-06-26T07:31:02.088Z,54.71
2019-06-26T07:33:31.550Z,55.03
2019-06-26T07:36:01.099Z,54.80
2019-06-26T07:38:30.558Z,54.41
2019-06-26T07:41:00.094Z,54.91
2019-06-26T07:43:35.798Z,55.04
2019-06-26T07:46:05.471Z,55.06
2019-06-26T07:48:34.884Z,54.73
2019-06-26T07:51:04.460Z,54.89
2019-06-26T07:53:33.924Z,54.36
2019-06-26T07:56:03.511Z,54.36
2019-06-26T07:58:33.009Z,54.82
2019-06-26T08:01:02.845Z,53.96
2019-06-26T08:03:32.332Z,53.96
2019-06-26T08:06:02.087Z,54.79
2019-06-26T08:08:31.660Z,55.32
2019-06-26T08:11:01.158Z,55.22
2019-06-26T08:13:30.735Z,54.54
2019-06-26T08:16:00.311Z,54.40
2019-06-26T08:18:29.938Z,54.49
2019-06-26T08:21:12.992Z,54.73
2019-06-26T08:23:42.811Z,54.39
2019-06-26T08:26:12.422Z,54.47
2019-06-26T08:28:41.857Z,54.20
2019-06-26T08:31:11.414Z,54.13
2019-06-26T08:33:40.971Z,53.96
2019-06-26T08:36:10.602Z,53.81
2019-06-26T08:38:41.752Z,53.83
2019-06-26T08:41:11.201Z,53.72
2019-06-26T08:43:40.854Z,53.26
2019-06-26T08:46:10.429Z,53.15
2019-06-26T08:48:40.808Z,53.06
2019-06-26T08:51:10.655Z,53.00
2019-06-26T08:53:40.139Z,53.06
2019-06-26T08:56:09.599Z,53.09
2019-06-26T08:58:39.238Z,53.01
2019-06-26T09:01:08.672Z,53.02
2019-06-26T09:03:41.866Z,52.83
2019-06-26T09:06:09.845Z,52.88
2019-06-26T09:08:39.409Z,52.64
2019-06-26T09:11:08.977Z,52.76
2019-06-26T09:13:38.514Z,52.72
2019-06-26T09:16:07.986Z,52.50
2019-06-26T09:18:37.447Z,52.63
2019-06-26T09:21:06.962Z,52.48
2019-06-26T09:23:36.493Z,52.44
2019-06-26T09:26:06.009Z,52.46
2019-06-26T09:28:35.608Z,52.20
2019-06-26T09:31:05.272Z,51.75
2019-06-26T09:33:34.668Z,51.68
2019-06-26T09:36:06.879Z,51.77
2019-06-26T09:38:35.443Z,51.36
2019-06-26T09:41:05.036Z,51.17
2019-06-26T09:43:34.594Z,51.02
2019-06-26T09:46:04.056Z,51.51
2019-06-26T09:48:33.650Z,52.21
2019-06-26T09:51:03.116Z,50.92
2019-06-26T09:53:46.690Z,50.58
2019-06-26T09:56:04.193Z,50.45
2019-06-26T09:58:33.743Z,51.85
2019-06-26T10:01:03.358Z,51.60
2019-06-26T10:03:32.900Z,52.43
2019-06-26T10:06:02.591Z,50.10
2019-06-26T10:08:32.036Z,49.52
2019-06-26T10:11:01.710Z,48.90
2019-06-26T10:13:31.360Z,48.83
2019-06-26T10:16:00.894Z,48.95
2019-06-26T10:18:30.390Z,49.70
2019-06-26T10:20:59.983Z,49.96
2019-06-26T10:23:29.483Z,49.08
2019-06-26T10:25:59.053Z,48.67
2019-06-26T10:28:28.618Z,47.47
2019-06-26T10:30:58.281Z,47.34
2019-06-26T10:33:27.814Z,47.50
2019-06-26T10:38:33.837Z,46.65
2019-06-26T10:41:03.477Z,46.90
2019-06-26T10:43:33.106Z,46.62
2019-06-26T10:46:02.732Z,49.45
2019-06-26T10:48:32.712Z,47.54
2019-06-26T10:51:02.322Z,46.19
2019-06-26T10:53:31.835Z,45.96
2019-06-26T10:56:01.466Z,46.23
2019-06-26T10:58:30.967Z,46.14
2019-06-26T11:01:00.617Z,45.94
2019-06-26T11:03:30.225Z,45.95
2019-06-26T11:05:59.910Z,46.70
2019-06-26T11:08:29.445Z,45.59
2019-06-26T11:10:58.987Z,46.68
2019-06-26T11:13:28.593Z,46.64
2019-06-26T11:15:58.389Z,45.44
2019-06-26T11:18:28.023Z,45.84
2019-06-26T11:20:57.634Z,47.68
2019-06-26T11:23:27.205Z,47.90
2019-06-26T11:25:56.732Z,48.15
2019-06-26T11:28:26.270Z,45.42
2019-06-26T11:30:55.861Z,45.18
2019-06-26T11:33:25.357Z,45.20
2019-06-26T11:35:54.951Z,44.06
2019-06-26T11:38:24.456Z,45.82
2019-06-26T11:40:54.043Z,44.33
2019-06-26T11:43:23.731Z,43.27
2019-06-26T11:45:53.478Z,43.83
2019-06-26T11:48:23.126Z,44.13
2019-06-26T11:50:52.735Z,43.63
2019-06-26T11:53:22.309Z,44.87
2019-06-26T11:55:51.900Z,45.80
2019-06-26T11:58:21.516Z,44.70
2019-06-26T12:00:51.066Z,43.00
2019-06-26T12:03:20.681Z,42.55
2019-06-26T12:05:50.344Z,42.59
2019-06-26T12:08:20.722Z,42.89
2019-06-26T12:10:50.288Z,42.87
2019-06-26T12:13:19.899Z,43.36
2019-06-26T12:15:49.524Z,43.27
2019-06-26T12:18:19.601Z,42.47
2019-06-26T12:20:51.070Z,44.40
2019-06-26T12:23:20.670Z,43.85
2019-06-26T12:25:50.842Z,43.50
2019-06-26T12:28:20.400Z,42.55
2019-06-26T12:30:50.026Z,41.98
2019-06-26T12:33:19.790Z,41.92
2019-06-26T12:35:49.492Z,41.08
2019-06-26T12:38:19.216Z,41.81
2019-06-26T12:40:49.036Z,42.02
2019-06-26T12:43:19.530Z,41.83
2019-06-26T12:45:49.086Z,40.62
2019-06-26T12:48:18.763Z,41.42
2019-06-26T12:50:48.413Z,41.01
2019-06-26T12:53:18.091Z,39.62
2019-06-26T12:55:48.516Z,41.12
2019-06-26T12:58:20.167Z,40.48
2019-06-26T13:00:49.904Z,40.34
2019-06-26T13:03:19.627Z,41.69
2019-06-26T13:05:49.342Z,39.09
2019-06-26T13:08:19.426Z,39.36
2019-06-26T13:10:50.479Z,38.85
2019-06-26T13:13:20.403Z,39.86
2019-06-26T13:15:51.067Z,39.48
2019-06-26T13:18:21.039Z,39.05
2019-06-26T13:20:53.252Z,38.79
2019-06-26T13:23:22.247Z,39.28
2019-06-26T13:25:51.886Z,38.31
2019-06-26T13:28:22.068Z,39.43
2019-06-26T13:30:53.484Z,38.96
2019-06-26T13:33:23.187Z,38.81
2019-06-26T13:35:52.756Z,37.93
2019-06-26T13:38:22.387Z,37.36
2019-06-26T13:40:51.924Z,37.83
2019-06-26T13:43:22.066Z,37.91
2019-06-26T13:45:51.654Z,37.33
2019-06-26T13:48:21.414Z,37.65
2019-06-26T13:50:51.138Z,39.12
2019-06-26T13:53:20.750Z,38.56
2019-06-26T13:55:51.129Z,38.22
2019-06-26T13:58:21.440Z,38.44
2019-06-26T14:00:51.747Z,38.94
2019-06-26T14:03:21.966Z,38.06
2019-06-26T14:05:51.574Z,37.88
2019-06-26T14:08:21.236Z,37.58
2019-06-26T14:10:50.808Z,38.55
2019-06-26T14:13:21.105Z,37.97
2019-06-26T14:15:50.819Z,38.18
2019-06-26T14:18:20.442Z,37.79
2019-06-26T14:20:51.026Z,37.62
2019-06-26T14:23:20.707Z,37.21
2019-06-26T14:25:50.283Z,37.48
2019-06-26T14:28:20.052Z,37.80
2019-06-26T14:30:50.271Z,37.69
2019-06-26T14:33:19.908Z,38.36
2019-06-26T14:35:50.254Z,38.05
2019-06-26T14:38:20.437Z,37.70
2019-06-26T14:40:50.071Z,37.52
2019-06-26T14:43:19.704Z,37.74
2019-06-26T14:45:49.243Z,37.44
2019-06-26T14:48:19.584Z,37.79
2019-06-26T14:50:49.221Z,37.80
2019-06-26T14:53:18.902Z,37.56
2019-06-26T14:55:48.545Z,37.60
2019-06-26T14:58:18.181Z,37.24
2019-06-26T15:00:48.252Z,36.97
2019-06-26T15:03:17.945Z,37.10
2019-06-26T15:05:48.233Z,36.89
2019-06-26T15:08:17.786Z,37.36
2019-06-26T15:10:48.069Z,37.24
2019-06-26T15:13:17.679Z,37.47
2019-06-26T15:15:47.901Z,37.35
2019-06-26T15:18:17.826Z,37.21
2019-06-26T15:20:47.433Z,37.23
2019-06-26T15:23:17.210Z,36.71
2019-06-26T15:25:47.464Z,36.86
2019-06-26T15:28:17.759Z,37.00
2019-06-26T15:30:47.493Z,36.77
2019-06-26T15:33:17.161Z,37.14
2019-06-26T15:35:46.850Z,36.76
2019-06-26T15:38:16.470Z,36.95
2019-06-26T15:40:46.026Z,36.48
2019-06-26T15:43:15.623Z,36.95
2019-06-26T15:45:45.261Z,36.90
2019-06-26T15:48:14.787Z,36.89
2019-06-26T15:50:44.508Z,36.58
2019-06-26T15:53:14.034Z,36.53
2019-06-26T15:55:43.690Z,36.41
2019-06-26T15:58:13.811Z,35.64
2019-06-26T16:00:43.491Z,35.39
2019-06-26T16:03:13.211Z,35.00
2019-06-26T16:05:42.730Z,35.07
2019-06-26T16:08:12.262Z,35.69
2019-06-26T16:10:41.796Z,34.70
2019-06-26T16:13:11.365Z,36.25
2019-06-26T16:15:41.065Z,35.70
2019-06-26T16:18:22.475Z,36.24
2019-06-26T16:20:52.029Z,36.48
2019-06-26T16:23:21.612Z,35.90
2019-06-26T16:25:51.846Z,36.39
2019-06-26T16:28:21.402Z,36.24
2019-06-26T16:30:51.647Z,35.96
2019-06-26T16:33:21.918Z,36.35
2019-06-26T16:35:51.559Z,36.30
2019-06-26T16:38:22.476Z,36.27
2019-06-26T16:40:52.157Z,34.68
2019-06-26T16:43:21.728Z,34.23
2019-06-26T16:45:52.059Z,34.68
2019-06-26T16:48:21.583Z,33.48
2019-06-26T16:50:51.107Z,32.16
2019-06-26T16:53:21.260Z,31.97
2019-06-26T16:55:51.701Z,33.39
2019-06-26T16:58:21.259Z,32.84
2019-06-26T17:00:51.634Z,31.78
2019-06-26T17:03:21.392Z,33.50
2019-06-26T17:05:51.068Z,33.67
2019-06-26T17:08:40.301Z,33.01
2019-06-26T17:11:10.461Z,34.34
2019-06-26T17:13:40.155Z,34.64
2019-06-26T17:16:10.205Z,33.08
2019-06-26T17:18:40.015Z,33.27
2019-06-26T17:21:10.171Z,32.67
2019-06-26T17:23:39.705Z,32.37
2019-06-26T17:26:09.341Z,33.46
2019-06-26T17:28:38.854Z,34.59
2019-06-26T17:31:08.512Z,34.42
2019-06-26T17:33:51.505Z,33.87
2019-06-26T17:36:11.989Z,35.32
2019-06-26T17:38:43.807Z,32.66
2019-06-26T17:41:14.073Z,33.77
2019-06-26T17:43:44.289Z,35.61
2019-06-26T17:46:14.571Z,33.72
2019-06-26T17:48:44.731Z,33.14
2019-06-26T17:51:14.914Z,33.46
2019-06-26T17:53:44.554Z,33.37
2019-06-26T17:56:14.731Z,33.53
2019-06-26T17:58:44.211Z,34.02
2019-06-26T18:01:13.803Z,33.64
2019-06-26T18:03:43.268Z,33.63
2019-06-26T18:06:12.872Z,34.35
2019-06-26T18:08:42.993Z,35.33
2019-06-26T18:11:13.220Z,33.86
2019-06-26T18:13:42.887Z,34.83
2019-06-26T18:16:13.080Z,34.85
2019-06-26T18:18:42.651Z,34.98
2019-06-26T18:21:15.606Z,34.68
2019-06-26T18:23:45.699Z,34.96
2019-06-26T18:26:15.287Z,36.07
2019-06-26T18:28:45.454Z,36.63
2019-06-26T18:31:15.719Z,34.57
2019-06-26T18:33:45.983Z,35.32
2019-06-26T18:36:18.437Z,34.47
2019-06-26T18:38:48.597Z,36.28
2019-06-26T18:41:18.728Z,35.65
2019-06-26T18:43:48.262Z,36.74
2019-06-26T18:46:18.479Z,34.33
2019-06-26T18:48:48.130Z,34.75
2019-06-26T18:51:17.601Z,34.81
2019-06-26T18:53:53.479Z,36.47
2019-06-26T18:56:19.079Z,35.91
2019-06-26T18:58:48.754Z,34.48
2019-06-26T19:01:18.246Z,37.04
2019-06-26T19:03:48.323Z,36.26
2019-06-26T19:06:18.441Z,36.07
2019-06-26T19:08:47.998Z,37.99
2019-06-26T19:11:17.763Z,36.09
2019-06-26T19:13:47.906Z,37.84
2019-06-26T19:16:18.160Z,37.28
2019-06-26T19:18:47.793Z,36.59
2019-06-26T19:21:17.443Z,36.71
2019-06-26T19:23:47.029Z,36.00
2019-06-26T19:26:16.690Z,36.92
2019-06-26T19:28:46.283Z,36.62
2019-06-26T19:31:15.835Z,38.07
2019-06-26T19:33:45.746Z,37.17
2019-06-26T19:36:15.551Z,38.35
2019-06-26T19:38:45.734Z,37.57
2019-06-26T19:41:15.375Z,38.30
2019-06-26T19:43:44.937Z,38.14
2019-06-26T19:46:14.485Z,38.29
2019-06-26T19:48:44.155Z,38.17
2019-06-26T19:51:13.799Z,38.37
2019-06-26T19:53:43.445Z,37.72
2019-06-26T19:56:13.005Z,37.66
2019-06-26T19:58:42.546Z,37.45
2019-06-26T20:01:12.140Z,36.06
2019-06-26T20:03:41.721Z,37.64
2019-06-26T20:06:11.299Z,37.74
2019-06-26T20:08:52.234Z,37.89
2019-06-26T20:11:12.117Z,37.62
2019-06-26T20:13:41.719Z,37.85
2019-06-26T20:16:11.234Z,37.98
2019-06-26T20:18:40.840Z,38.34
2019-06-26T20:21:10.479Z,37.90
2019-06-26T20:23:40.156Z,38.41
2019-06-26T20:26:09.747Z,37.96
2019-06-26T20:28:39.333Z,38.54
2019-06-26T20:31:09.128Z,38.01
2019-06-26T20:33:38.615Z,38.49
2019-06-26T20:36:08.305Z,39.11
2019-06-26T20:38:37.899Z,39.61
2019-06-26T20:41:09.351Z,38.68
2019-06-26T20:43:38.912Z,38.62
2019-06-26T20:46:08.535Z,39.76
2019-06-26T20:48:38.109Z,39.88
2019-06-26T20:51:07.669Z,38.53
2019-06-26T20:53:37.235Z,39.20
2019-06-26T20:56:06.878Z,39.84
2019-06-26T20:58:36.603Z,39.35
2019-06-26T21:01:06.153Z,39.40
2019-06-26T21:03:35.706Z,40.02
2019-06-26T21:06:05.270Z,40.08
2019-06-26T21:08:34.831Z,39.35
2019-06-26T21:11:04.489Z,39.93
2019-06-26T21:13:34.109Z,40.55
2019-06-26T21:16:04.057Z,40.02
2019-06-26T21:18:33.608Z,40.17
2019-06-26T21:21:03.162Z,40.20
2019-06-26T21:23:32.712Z,40.01
2019-06-26T21:26:02.200Z,40.33
2019-06-26T21:28:31.789Z,40.69
2019-06-26T21:31:01.414Z,40.59
2019-06-26T21:33:30.939Z,40.48
2019-06-26T21:36:00.580Z,40.96
2019-06-26T21:38:30.133Z,40.77
2019-06-26T21:40:59.795Z,40.38
2019-06-26T21:43:29.367Z,40.98
2019-06-26T21:45:58.987Z,39.95
2019-06-26T21:48:28.553Z,41.69
2019-06-26T21:50:58.188Z,41.01
2019-06-26T21:53:27.762Z,41.37
2019-06-26T21:55:57.379Z,41.58
2019-06-26T21:58:26.907Z,41.12
2019-06-26T22:00:56.542Z,42.32
2019-06-26T22:03:26.186Z,41.87
2019-06-26T22:05:55.906Z,42.23
2019-06-26T22:08:25.503Z,42.15
2019-06-26T22:10:55.111Z,41.84
2019-06-26T22:13:24.621Z,41.68
2019-06-26T22:15:54.266Z,42.13
2019-06-26T22:18:23.920Z,41.35
2019-06-26T22:20:53.533Z,41.87
2019-06-26T22:23:23.093Z,41.02
2019-06-26T22:25:52.755Z,42.78
2019-06-26T22:28:22.447Z,43.71
2019-06-26T22:30:52.136Z,42.68
2019-06-26T22:33:21.747Z,44.83
2019-06-26T22:35:51.391Z,43.77
2019-06-26T22:38:22.649Z,43.37
2019-06-26T22:40:52.399Z,41.70
2019-06-26T22:43:21.994Z,42.61
2019-06-26T22:45:51.683Z,43.57
2019-06-26T22:48:21.350Z,43.42
2019-06-26T22:50:51.044Z,44.49
2019-06-26T22:53:20.729Z,44.89
2019-06-26T22:56:06.410Z,44.75
2019-06-26T22:58:22.012Z,44.30
2019-06-26T23:00:51.637Z,44.49
2019-06-26T23:03:21.297Z,44.83
2019-06-26T23:05:50.958Z,44.92
2019-06-26T23:08:20.495Z,44.40
2019-06-26T23:10:50.053Z,45.67
2019-06-26T23:13:19.735Z,45.99
2019-06-26T23:15:49.711Z,45.70
2019-06-26T23:18:19.487Z,45.66
2019-06-26T23:20:49.201Z,44.29
2019-06-26T23:23:18.926Z,44.23
2019-06-26T23:25:48.554Z,45.52
2019-06-26T23:28:18.109Z,46.68
2019-06-26T23:30:47.737Z,45.31
2019-06-26T23:33:17.309Z,45.54
2019-06-26T23:35:46.957Z,45.97
2019-06-26T23:38:16.600Z,44.79
2019-06-26T23:40:46.223Z,45.52
2019-06-26T23:43:15.866Z,44.46
2019-06-26T23:45:45.405Z,45.40
2019-06-26T23:48:14.975Z,45.44
2019-06-26T23:50:44.694Z,46.40
2019-06-26T23:53:14.319Z,47.56
2019-06-26T23:55:43.956Z,46.11
2019-06-26T23:58:13.635Z,45.87
